createdAt,value
2019-03-17T00:00:15.560Z,0.00
2019-03-17T00:01:15.528Z,0.00
2019-03-17T00:02:15.481Z,0.00
2019-03-17T00:03:15.474Z,0.00
2019-03-17T00:04:15.453Z,0.00
2019-03-17T00:05:15.446Z,0.00
2019-03-17T00:06:15.470Z,0.00
2019-03-17T00:07:15.446Z,0.00
2019-03-17T00:08:15.475Z,0.00
2019-03-17T00:09:15.409Z,0.00
2019-03-17T00:10:15.400Z,0.00
2019-03-17T00:11:15.477Z,0.00
2019-03-17T00:12:16.360Z,0.00
2019-03-17T00:13:17.606Z,0.00
2019-03-17T00:14:15.386Z,0.00
2019-03-17T00:15:15.765Z,0.00
2019-03-17T00:16:15.514Z,0.00
2019-03-17T00:17:15.604Z,0.00
2019-03-17T00:18:15.311Z,0.00
2019-03-17T00:19:15.299Z,0.00
2019-03-17T00:20:15.288Z,0.00
2019-03-17T00:21:15.305Z,0.00
2019-03-17T00:22:15.258Z,0.00
2019-03-17T00:23:15.246Z,0.00
2019-03-17T00:24:15.237Z,0.00
2019-03-17T00:25:15.252Z,0.00
2019-03-17T00:26:15.221Z,0.00
2019-03-17T00:27:15.226Z,0.00
2019-03-17T00:28:15.214Z,0.00
2019-03-17T00:29:15.211Z,0.00
2019-03-17T00:30:15.169Z,0.00
2019-03-17T00:31:23.917Z,0.00
2019-03-17T00:32:16.167Z,0.00
2019-03-17T00:33:15.161Z,0.00
2019-03-17T00:34:15.159Z,0.00
2019-03-17T00:35:15.120Z,0.00
2019-03-17T00:36:15.100Z,0.00
2019-03-17T00:37:15.090Z,0.00
2019-03-17T00:38:15.101Z,0.00
2019-03-17T00:39:15.081Z,0.00
2019-03-17T00:40:15.138Z,0.00
2019-03-17T00:41:15.109Z,0.00
2019-03-17T00:42:15.179Z,0.00
2019-03-17T00:43:15.033Z,0.00
2019-03-17T00:44:15.031Z,0.00
2019-03-17T00:45:15.007Z,0.00
2019-03-17T00:46:15.020Z,0.00
2019-03-17T00:47:14.998Z,0.00
2019-03-17T00:48:14.975Z,0.00
2019-03-17T00:49:14.968Z,0.00
2019-03-17T00:50:14.967Z,0.00
2019-03-17T00:51:14.970Z,0.00
2019-03-17T00:52:14.982Z,0.00
2019-03-17T00:53:14.936Z,0.00
2019-03-17T00:54:15.005Z,0.00
2019-03-17T00:55:14.923Z,0.00
2019-03-17T00:56:15.370Z,0.00
2019-03-17T00:57:15.502Z,0.00
2019-03-17T00:58:14.902Z,0.00
2019-03-17T00:59:14.864Z,0.00
2019-03-17T01:00:14.846Z,0.00
2019-03-17T01:01:14.839Z,0.00
2019-03-17T01:02:14.816Z,0.00
2019-03-17T01:03:14.824Z,0.00
2019-03-17T01:04:14.809Z,0.00
2019-03-17T01:05:14.801Z,0.00
2019-03-17T01:06:14.780Z,0.00
2019-03-17T01:07:14.769Z,0.00
2019-03-17T01:08:14.778Z,0.00
2019-03-17T01:09:14.772Z,0.00
2019-03-17T01:10:14.740Z,0.00
2019-03-17T01:11:14.744Z,0.00
2019-03-17T01:12:14.735Z,0.00
2019-03-17T01:13:14.715Z,0.00
2019-03-17T01:14:14.694Z,0.00
2019-03-17T01:15:14.673Z,0.00
2019-03-17T01:16:14.663Z,0.00
2019-03-17T01:17:14.710Z,0.00
2019-03-17T01:18:14.654Z,0.00
2019-03-17T01:19:14.697Z,0.00
2019-03-17T01:20:14.623Z,0.00
2019-03-17T01:21:14.609Z,0.00
2019-03-17T01:22:14.610Z,0.00
2019-03-17T01:23:14.599Z,0.00
2019-03-17T01:24:14.583Z,0.00
2019-03-17T01:25:14.597Z,0.00
2019-03-17T01:26:14.555Z,0.00
2019-03-17T01:27:14.551Z,0.00
2019-03-17T01:28:14.530Z,0.00
2019-03-17T01:29:14.561Z,0.00
2019-03-17T01:30:14.522Z,0.00
2019-03-17T01:31:14.508Z,0.00
2019-03-17T01:32:14.506Z,0.00
2019-03-17T01:33:14.487Z,0.00
2019-03-17T01:34:14.465Z,0.00
2019-03-17T01:35:14.471Z,0.00
2019-03-17T01:36:14.461Z,0.00
2019-03-17T01:37:14.451Z,0.00
2019-03-17T01:38:14.414Z,0.00
2019-03-17T01:39:14.424Z,0.00
2019-03-17T01:40:14.406Z,0.00
2019-03-17T01:41:14.388Z,0.00
2019-03-17T01:42:14.393Z,0.00
2019-03-17T01:43:14.373Z,0.00
2019-03-17T01:44:14.382Z,0.00
2019-03-17T01:45:14.344Z,0.00
2019-03-17T01:46:14.333Z,0.00
2019-03-17T01:47:14.326Z,0.00
2019-03-17T01:48:14.311Z,0.00
2019-03-17T01:49:14.333Z,0.00
2019-03-17T01:50:14.292Z,0.00
2019-03-17T01:51:14.284Z,0.00
2019-03-17T01:52:14.264Z,0.00
2019-03-17T01:53:14.262Z,0.00
2019-03-17T01:54:14.263Z,0.00
2019-03-17T01:55:14.261Z,0.00
2019-03-17T01:56:14.228Z,0.00
2019-03-17T01:57:14.218Z,0.00
2019-03-17T01:58:14.201Z,0.00
2019-03-17T01:59:14.194Z,0.00
2019-03-17T02:00:14.200Z,0.00
2019-03-17T02:01:14.185Z,0.00
2019-03-17T02:02:14.189Z,0.00
2019-03-17T02:03:14.154Z,0.00
2019-03-17T02:04:14.144Z,0.00
2019-03-17T02:05:21.956Z,0.00
2019-03-17T02:06:15.104Z,0.00
2019-03-17T02:07:14.124Z,0.00
2019-03-17T02:08:14.095Z,0.00
2019-03-17T02:09:14.095Z,0.00
2019-03-17T02:10:14.068Z,0.00
2019-03-17T02:11:14.054Z,0.00
2019-03-17T02:12:14.080Z,0.00
2019-03-17T02:13:14.063Z,0.00
2019-03-17T02:14:14.034Z,0.00
2019-03-17T02:15:14.030Z,0.00
2019-03-17T02:16:14.023Z,0.00
2019-03-17T02:17:14.003Z,0.00
2019-03-17T02:18:14.028Z,0.00
2019-03-17T02:19:13.965Z,0.00
2019-03-17T02:20:13.956Z,0.00
2019-03-17T02:21:13.944Z,0.00
2019-03-17T02:22:13.948Z,0.00
2019-03-17T02:23:13.930Z,0.00
2019-03-17T02:24:13.951Z,0.00
2019-03-17T02:25:13.898Z,0.00
2019-03-17T02:26:13.906Z,0.00
2019-03-17T02:27:13.898Z,0.00
2019-03-17T02:28:13.893Z,0.00
2019-03-17T02:29:13.871Z,0.00
2019-03-17T02:30:13.874Z,0.00
2019-03-17T02:31:13.845Z,0.00
2019-03-17T02:32:13.834Z,0.00
2019-03-17T02:33:13.815Z,0.00
2019-03-17T02:34:13.838Z,0.00
2019-03-17T02:35:13.828Z,0.00
2019-03-17T02:36:13.806Z,0.00
2019-03-17T02:37:13.779Z,0.00
2019-03-17T02:38:13.762Z,0.00
2019-03-17T02:39:13.754Z,0.00
2019-03-17T02:40:13.778Z,0.00
2019-03-17T02:41:13.759Z,0.00
2019-03-17T02:42:13.722Z,0.00
2019-03-17T02:43:13.703Z,0.00
2019-03-17T02:44:13.692Z,0.00
2019-03-17T02:45:13.741Z,0.00
2019-03-17T02:46:13.711Z,0.00
2019-03-17T02:47:13.682Z,0.00
2019-03-17T02:48:13.654Z,0.00
2019-03-17T02:49:13.652Z,0.00
2019-03-17T02:50:13.657Z,0.00
2019-03-17T02:51:13.626Z,0.00
2019-03-17T02:52:13.621Z,0.00
2019-03-17T02:53:13.606Z,0.00
2019-03-17T02:54:13.596Z,0.00
2019-03-17T02:55:13.600Z,0.00
2019-03-17T02:56:13.562Z,0.00
2019-03-17T02:57:13.563Z,0.00
2019-03-17T02:58:13.559Z,0.00
2019-03-17T02:59:13.553Z,0.00
2019-03-17T03:00:13.555Z,0.00
2019-03-17T03:01:13.537Z,0.00
2019-03-17T03:02:13.507Z,0.00
2019-03-17T03:03:13.490Z,0.00
2019-03-17T03:04:13.490Z,0.00
2019-03-17T03:05:13.487Z,0.00
2019-03-17T03:06:13.461Z,0.00
2019-03-17T03:07:13.454Z,0.00
2019-03-17T03:08:13.443Z,0.00
2019-03-17T03:09:13.432Z,0.00
2019-03-17T03:10:13.436Z,0.00
2019-03-17T03:11:13.402Z,0.00
2019-03-17T03:12:13.433Z,0.00
2019-03-17T03:13:13.414Z,0.00
2019-03-17T03:14:13.376Z,0.00
2019-03-17T03:15:13.390Z,0.00
2019-03-17T03:16:13.339Z,0.00
2019-03-17T03:17:13.334Z,0.00
2019-03-17T03:18:13.337Z,0.00
2019-03-17T03:19:13.320Z,0.00
2019-03-17T03:20:13.319Z,0.00
2019-03-17T03:21:13.322Z,0.00
2019-03-17T03:22:13.305Z,0.00
2019-03-17T03:23:13.265Z,0.00
2019-03-17T03:24:13.268Z,0.00
2019-03-17T03:25:13.259Z,0.00
2019-03-17T03:26:13.246Z,0.00
2019-03-17T03:27:13.244Z,0.00
2019-03-17T03:28:13.238Z,0.00
2019-03-17T03:29:13.209Z,0.00
2019-03-17T03:30:13.231Z,0.00
2019-03-17T03:31:13.200Z,0.00
2019-03-17T03:32:13.205Z,0.00
2019-03-17T03:33:13.176Z,0.00
2019-03-17T03:34:13.172Z,0.00
2019-03-17T03:35:13.138Z,0.00
2019-03-17T03:36:13.139Z,0.00
2019-03-17T03:37:13.121Z,0.00
2019-03-17T03:38:13.114Z,0.00
2019-03-17T03:39:13.116Z,0.00
2019-03-17T03:40:13.090Z,0.00
2019-03-17T03:41:13.100Z,0.00
2019-03-17T03:42:13.062Z,0.00
2019-03-17T03:43:13.055Z,0.00
2019-03-17T03:44:13.070Z,0.00
2019-03-17T03:45:13.044Z,0.00
2019-03-17T03:46:13.012Z,0.00
2019-03-17T03:47:13.015Z,0.00
2019-03-17T03:48:13.013Z,0.00
2019-03-17T03:49:12.981Z,0.00
2019-03-17T03:50:12.981Z,0.00
2019-03-17T03:51:12.985Z,0.00
2019-03-17T03:52:12.961Z,0.00
2019-03-17T03:53:12.973Z,0.00
2019-03-17T03:54:12.934Z,0.00
2019-03-17T03:55:12.914Z,0.00
2019-03-17T03:56:12.939Z,0.00
2019-03-17T03:57:12.898Z,0.00
2019-03-17T03:58:12.917Z,0.00
2019-03-17T03:59:12.870Z,0.00
2019-03-17T04:00:12.874Z,0.00
2019-03-17T04:01:12.863Z,0.00
2019-03-17T04:02:12.860Z,0.00
2019-03-17T04:03:12.884Z,0.00
2019-03-17T04:04:12.844Z,0.00
2019-03-17T04:05:12.818Z,0.00
2019-03-17T04:06:25.795Z,0.00
2019-03-17T04:07:13.783Z,0.00
2019-03-17T04:08:12.805Z,0.00
2019-03-17T04:09:12.766Z,0.00
2019-03-17T04:10:12.770Z,0.00
2019-03-17T04:11:12.751Z,0.00
2019-03-17T04:12:12.746Z,0.00
2019-03-17T04:13:12.773Z,0.00
2019-03-17T04:14:12.700Z,0.00
2019-03-17T04:15:12.698Z,0.00
2019-03-17T04:16:12.688Z,0.00
2019-03-17T04:17:12.680Z,0.00
2019-03-17T04:18:12.661Z,0.00
2019-03-17T04:19:12.668Z,0.00
2019-03-17T04:20:12.680Z,0.00
2019-03-17T04:21:12.635Z,0.00
2019-03-17T04:22:12.629Z,0.00
2019-03-17T04:23:12.629Z,0.00
2019-03-17T04:24:12.604Z,0.00
2019-03-17T04:25:12.608Z,0.00
2019-03-17T04:26:12.580Z,0.00
2019-03-17T04:27:12.558Z,0.00
2019-03-17T04:28:12.595Z,0.00
2019-03-17T04:29:12.562Z,0.00
2019-03-17T04:30:12.545Z,0.00
2019-03-17T04:31:14.544Z,0.00
2019-03-17T04:32:12.512Z,0.00
2019-03-17T04:33:12.501Z,0.00
2019-03-17T04:34:12.516Z,0.00
2019-03-17T04:35:12.503Z,0.00
2019-03-17T04:36:12.474Z,0.00
2019-03-17T04:37:12.465Z,0.00
2019-03-17T04:38:12.443Z,0.00
2019-03-17T04:39:12.464Z,0.00
2019-03-17T04:40:12.421Z,0.00
2019-03-17T04:41:12.406Z,0.00
2019-03-17T04:42:12.442Z,0.00
2019-03-17T04:43:12.409Z,0.00
2019-03-17T04:44:20.728Z,0.00
2019-03-17T04:45:13.404Z,0.00
2019-03-17T04:46:12.363Z,0.00
2019-03-17T04:47:12.344Z,4.00
2019-03-17T04:48:12.347Z,4.00
2019-03-17T04:49:12.347Z,4.00
2019-03-17T04:50:12.332Z,0.00
2019-03-17T04:51:12.343Z,4.00
2019-03-17T04:52:12.288Z,4.00
2019-03-17T04:53:12.279Z,4.00
2019-03-17T04:54:12.285Z,8.00
2019-03-17T04:55:12.283Z,8.00
2019-03-17T04:56:12.256Z,8.00
2019-03-17T04:57:12.245Z,8.00
2019-03-17T04:58:12.225Z,12.00
2019-03-17T04:59:12.212Z,16.00
2019-03-17T05:00:12.229Z,16.00
2019-03-17T05:01:12.199Z,20.00
2019-03-17T05:02:13.592Z,24.00
2019-03-17T05:03:12.175Z,28.00
2019-03-17T05:04:12.152Z,32.00
2019-03-17T05:05:12.156Z,36.00
2019-03-17T05:06:12.161Z,40.00
2019-03-17T05:07:12.133Z,44.00
2019-03-17T05:08:12.124Z,52.00
2019-03-17T05:09:12.113Z,56.00
2019-03-17T05:10:12.110Z,64.00
2019-03-17T05:11:12.101Z,68.00
2019-03-17T05:12:12.071Z,80.00
2019-03-17T05:13:12.071Z,88.00
2019-03-17T05:14:12.055Z,100.00
2019-03-17T05:15:12.056Z,112.00
2019-03-17T05:16:12.061Z,116.00
2019-03-17T05:17:12.029Z,116.00
2019-03-17T05:18:11.997Z,124.00
2019-03-17T05:19:11.993Z,132.00
2019-03-17T05:20:11.986Z,136.00
2019-03-17T05:21:12.019Z,136.00
2019-03-17T05:22:11.958Z,144.00
2019-03-17T05:23:11.944Z,152.00
2019-03-17T05:24:11.933Z,160.00
2019-03-17T05:25:11.924Z,164.00
2019-03-17T05:26:11.922Z,184.00
2019-03-17T05:27:11.944Z,216.00
2019-03-17T05:28:11.897Z,244.00
2019-03-17T05:29:11.896Z,256.00
2019-03-17T05:30:11.877Z,252.00
2019-03-17T05:31:11.878Z,260.00
2019-03-17T05:32:11.858Z,280.00
2019-03-17T05:33:11.868Z,300.00
2019-03-17T05:34:11.835Z,328.00
2019-03-17T05:35:11.819Z,368.00
2019-03-17T05:36:11.813Z,372.00
2019-03-17T05:37:11.822Z,372.00
2019-03-17T05:38:11.839Z,372.00
2019-03-17T05:39:11.771Z,368.00
2019-03-17T05:40:11.763Z,360.00
2019-03-17T05:41:11.745Z,348.00
2019-03-17T05:42:11.750Z,348.00
2019-03-17T05:43:11.770Z,344.00
2019-03-17T05:44:11.725Z,352.00
2019-03-17T05:45:11.716Z,364.00
2019-03-17T05:46:11.698Z,372.00
2019-03-17T05:47:11.691Z,396.00
2019-03-17T05:48:11.680Z,408.00
2019-03-17T05:49:11.688Z,432.00
2019-03-17T05:50:11.662Z,456.00
2019-03-17T05:51:11.661Z,480.00
2019-03-17T05:52:11.636Z,528.00
2019-03-17T05:53:11.612Z,604.00
2019-03-17T05:54:11.650Z,684.00
2019-03-17T05:55:11.633Z,764.00
2019-03-17T05:56:11.610Z,852.00
2019-03-17T05:57:11.588Z,912.00
2019-03-17T05:58:11.565Z,960.00
2019-03-17T05:59:11.587Z,996.00
2019-03-17T06:00:11.546Z,1048.00
2019-03-17T06:01:11.550Z,1128.00
2019-03-17T06:02:11.532Z,1236.00
2019-03-17T06:03:11.523Z,1344.00
2019-03-17T06:04:11.554Z,1492.00
2019-03-17T06:05:11.526Z,1636.00
2019-03-17T06:06:11.478Z,1796.00
2019-03-17T06:07:18.577Z,1912.00
2019-03-17T06:08:12.457Z,2096.00
2019-03-17T06:09:11.461Z,2256.00
2019-03-17T06:10:11.455Z,2320.00
2019-03-17T06:11:11.417Z,2428.00
2019-03-17T06:12:11.420Z,2508.00
2019-03-17T06:13:11.404Z,2492.00
2019-03-17T06:14:11.393Z,2584.00
2019-03-17T06:15:11.455Z,2728.00
2019-03-17T06:16:11.376Z,2876.00
2019-03-17T06:17:11.368Z,3148.00
2019-03-17T06:18:11.339Z,3404.00
2019-03-17T06:19:11.329Z,3600.00
2019-03-17T06:20:11.328Z,3768.00
2019-03-17T06:21:11.335Z,3888.00
2019-03-17T06:22:11.307Z,3964.00
2019-03-17T06:23:11.302Z,4024.00
2019-03-17T06:24:11.282Z,4084.00
2019-03-17T06:25:11.267Z,4164.00
2019-03-17T06:26:11.279Z,4268.00
2019-03-17T06:27:11.281Z,4420.00
2019-03-17T06:28:11.236Z,4596.00
2019-03-17T06:29:11.227Z,4744.00
2019-03-17T06:30:11.215Z,4856.00
2019-03-17T06:31:11.197Z,4960.00
2019-03-17T06:32:11.189Z,5072.00
2019-03-17T06:33:11.227Z,4944.00
2019-03-17T06:34:11.173Z,4420.00
2019-03-17T06:35:11.263Z,3688.00
2019-03-17T06:36:11.158Z,3236.00
2019-03-17T06:37:11.165Z,3128.00
2019-03-17T06:38:11.130Z,2984.00
2019-03-17T06:39:11.128Z,2852.00
2019-03-17T06:40:11.111Z,2772.00
2019-03-17T06:41:11.098Z,2708.00
2019-03-17T06:42:11.087Z,2688.00
2019-03-17T06:43:11.087Z,2604.00
2019-03-17T06:44:11.079Z,2548.00
2019-03-17T06:45:11.043Z,2508.00
2019-03-17T06:46:11.056Z,2596.00
2019-03-17T06:47:11.054Z,2804.00
2019-03-17T06:48:11.031Z,3012.00
2019-03-17T06:49:11.026Z,3104.00
2019-03-17T06:50:10.996Z,3160.00
2019-03-17T06:51:10.979Z,3072.00
2019-03-17T06:52:10.989Z,2964.00
2019-03-17T06:53:10.964Z,2988.00
2019-03-17T06:54:10.958Z,3208.00
2019-03-17T06:55:10.945Z,3492.00
2019-03-17T06:56:10.921Z,3896.00
2019-03-17T06:57:10.907Z,4764.00
2019-03-17T06:58:10.931Z,5712.00
2019-03-17T06:59:10.906Z,6320.00
2019-03-17T07:00:10.892Z,6608.00
2019-03-17T07:01:10.881Z,5944.00
2019-03-17T07:02:10.849Z,5364.00
2019-03-17T07:03:10.844Z,5168.00
2019-03-17T07:04:10.867Z,4996.00
2019-03-17T07:05:10.830Z,4840.00
2019-03-17T07:06:10.840Z,5148.00
2019-03-17T07:07:10.817Z,5500.00
2019-03-17T07:08:10.799Z,6152.00
2019-03-17T07:09:10.787Z,7108.00
2019-03-17T07:10:10.782Z,7484.00
2019-03-17T07:11:11.201Z,7364.00
2019-03-17T07:12:10.763Z,8660.00
2019-03-17T07:13:10.756Z,9896.00
2019-03-17T07:14:10.723Z,9904.00
2019-03-17T07:15:10.734Z,8988.00
2019-03-17T07:16:10.708Z,8244.00
2019-03-17T07:17:10.693Z,7728.00
2019-03-17T07:18:10.691Z,6984.00
2019-03-17T07:19:10.669Z,6700.00
2019-03-17T07:20:10.687Z,6740.00
2019-03-17T07:21:10.654Z,6536.00
2019-03-17T07:22:10.639Z,5980.00
2019-03-17T07:23:10.622Z,5628.00
2019-03-17T07:24:10.624Z,5644.00
2019-03-17T07:25:10.616Z,5988.00
2019-03-17T07:26:10.607Z,6080.00
2019-03-17T07:27:10.596Z,5764.00
2019-03-17T07:28:10.576Z,6528.00
2019-03-17T07:29:10.559Z,7744.00
2019-03-17T07:30:10.585Z,9152.00
2019-03-17T07:31:10.546Z,9776.00
2019-03-17T07:32:10.535Z,9324.00
2019-03-17T07:33:10.531Z,8540.00
2019-03-17T07:34:10.501Z,9408.00
2019-03-17T07:35:10.517Z,9236.00
2019-03-17T07:36:10.501Z,11612.00
2019-03-17T07:37:10.471Z,11452.00
2019-03-17T07:38:10.539Z,9556.00
2019-03-17T07:39:11.965Z,9936.00
2019-03-17T07:40:10.450Z,13180.00
2019-03-17T07:41:10.446Z,12576.00
2019-03-17T07:42:10.447Z,11008.00
2019-03-17T07:43:10.409Z,11056.00
2019-03-17T07:44:10.398Z,10288.00
2019-03-17T07:45:10.393Z,9692.00
2019-03-17T07:46:10.376Z,9572.00
2019-03-17T07:47:10.368Z,10004.00
2019-03-17T07:48:10.393Z,10840.00
2019-03-17T07:49:10.350Z,11976.00
2019-03-17T07:50:10.332Z,17280.00
2019-03-17T07:51:10.336Z,18752.00
2019-03-17T07:52:10.325Z,19264.00
2019-03-17T07:53:10.309Z,19232.00
2019-03-17T07:54:10.312Z,20640.00
2019-03-17T07:55:10.304Z,20160.00
2019-03-17T07:56:10.265Z,20128.00
2019-03-17T07:57:10.250Z,20192.00
2019-03-17T07:58:10.253Z,20128.00
2019-03-17T07:59:10.229Z,19808.00
2019-03-17T08:00:10.237Z,19488.00
2019-03-17T08:01:10.203Z,19104.00
2019-03-17T08:02:10.220Z,19872.00
2019-03-17T08:03:10.197Z,19904.00
2019-03-17T08:04:10.195Z,19520.00
2019-03-17T08:05:10.198Z,18912.00
2019-03-17T08:06:10.167Z,18496.00
2019-03-17T08:07:10.139Z,18432.00
2019-03-17T08:08:10.166Z,18272.00
2019-03-17T08:09:10.118Z,18144.00
2019-03-17T08:10:10.130Z,18112.00
2019-03-17T08:11:10.132Z,17856.00
2019-03-17T08:12:10.092Z,18048.00
2019-03-17T08:13:10.078Z,18560.00
2019-03-17T08:14:10.072Z,18496.00
2019-03-17T08:15:10.059Z,18784.00
2019-03-17T08:16:10.066Z,19072.00
2019-03-17T08:17:10.070Z,19744.00
2019-03-17T08:18:10.031Z,20544.00
2019-03-17T08:19:10.011Z,21600.00
2019-03-17T08:20:09.993Z,20832.00
2019-03-17T08:21:09.982Z,20608.00
2019-03-17T08:22:10.010Z,20672.00
2019-03-17T08:23:09.974Z,20256.00
2019-03-17T08:24:09.961Z,18240.00
2019-03-17T08:25:09.958Z,18144.00
2019-03-17T08:26:09.922Z,19616.00
2019-03-17T08:27:09.922Z,19168.00
2019-03-17T08:28:09.922Z,16928.00
2019-03-17T08:29:09.897Z,17984.00
2019-03-17T08:30:09.894Z,19136.00
2019-03-17T08:31:10.208Z,20192.00
2019-03-17T08:32:09.862Z,20864.00
2019-03-17T08:33:09.871Z,21536.00
2019-03-17T08:34:09.859Z,22336.00
2019-03-17T08:35:09.856Z,22560.00
2019-03-17T08:36:09.838Z,30272.00
2019-03-17T08:37:09.823Z,22752.00
2019-03-17T08:38:21.240Z,30368.00
2019-03-17T08:39:10.832Z,26400.00
2019-03-17T08:40:09.778Z,18496.00
2019-03-17T08:41:09.765Z,25056.00
2019-03-17T08:42:09.761Z,24128.00
2019-03-17T08:43:09.749Z,21376.00
2019-03-17T08:44:09.743Z,21600.00
2019-03-17T08:45:09.774Z,22080.00
2019-03-17T08:46:09.706Z,27552.00
2019-03-17T08:47:09.699Z,25632.00
2019-03-17T08:48:09.705Z,26016.00
2019-03-17T08:49:09.685Z,30240.00
2019-03-17T08:50:09.686Z,23872.00
2019-03-17T08:51:09.690Z,22784.00
2019-03-17T08:52:09.639Z,21632.00
2019-03-17T08:53:09.632Z,13496.00
2019-03-17T08:54:09.642Z,26400.00
2019-03-17T08:55:09.614Z,15820.00
2019-03-17T08:56:09.642Z,30272.00
2019-03-17T08:57:09.598Z,35424.00
2019-03-17T08:58:09.580Z,30080.00
2019-03-17T08:59:09.580Z,25184.00
2019-03-17T09:00:09.581Z,31680.00
2019-03-17T09:01:09.592Z,27008.00
2019-03-17T09:02:09.559Z,28864.00
2019-03-17T09:03:09.537Z,32128.00
2019-03-17T09:04:10.480Z,36736.00
2019-03-17T09:05:09.586Z,17408.00
2019-03-17T09:06:09.525Z,19584.00
2019-03-17T09:07:09.501Z,31328.00
2019-03-17T09:08:09.492Z,33536.00
2019-03-17T09:09:09.479Z,34976.00
2019-03-17T09:10:09.453Z,30816.00
2019-03-17T09:11:09.456Z,29824.00
2019-03-17T09:12:09.447Z,29216.00
2019-03-17T09:13:09.434Z,29312.00
2019-03-17T09:14:09.420Z,29952.00
2019-03-17T09:15:09.412Z,30624.00
2019-03-17T09:16:09.421Z,31264.00
2019-03-17T09:17:14.182Z,31616.00
2019-03-17T09:18:10.442Z,31296.00
2019-03-17T09:19:09.365Z,30624.00
2019-03-17T09:20:09.353Z,30720.00
2019-03-17T09:21:09.366Z,30688.00
2019-03-17T09:22:09.322Z,30432.00
2019-03-17T09:23:09.307Z,32832.00
2019-03-17T09:24:17.108Z,21792.00
2019-03-17T09:25:10.287Z,36768.00
2019-03-17T09:26:09.326Z,35872.00
2019-03-17T09:27:09.276Z,35008.00
2019-03-17T09:28:09.263Z,26016.00
2019-03-17T09:29:09.280Z,37984.00
2019-03-17T09:30:09.261Z,36864.00
2019-03-17T09:31:09.228Z,19232.00
2019-03-17T09:32:09.234Z,33376.00
2019-03-17T09:33:09.203Z,31072.00
2019-03-17T09:34:09.195Z,30688.00
2019-03-17T09:35:09.205Z,34592.00
2019-03-17T09:36:09.170Z,13556.00
2019-03-17T09:37:09.158Z,36608.00
2019-03-17T09:38:09.200Z,34240.00
2019-03-17T09:39:09.154Z,29632.00
2019-03-17T09:40:09.142Z,23424.00
2019-03-17T09:41:09.134Z,22848.00
2019-03-17T09:42:11.168Z,30464.00
2019-03-17T09:43:09.128Z,44352.00
2019-03-17T09:44:09.104Z,51040.00
2019-03-17T09:45:09.075Z,31296.00
2019-03-17T09:46:09.075Z,14332.00
2019-03-17T09:47:09.077Z,13720.00
2019-03-17T09:48:09.049Z,16864.00
2019-03-17T09:49:09.063Z,14120.00
2019-03-17T09:50:09.028Z,12288.00
2019-03-17T09:51:09.033Z,17536.00
2019-03-17T09:52:09.010Z,17248.00
2019-03-17T09:53:09.009Z,15752.00
2019-03-17T09:54:09.012Z,21024.00
2019-03-17T09:55:08.979Z,22208.00
2019-03-17T09:56:08.952Z,18112.00
2019-03-17T09:57:08.939Z,10948.00
2019-03-17T09:58:08.938Z,10880.00
2019-03-17T09:59:08.950Z,9372.00
2019-03-17T10:00:08.923Z,6632.00
2019-03-17T10:01:08.922Z,5888.00
2019-03-17T10:02:08.880Z,7716.00
2019-03-17T10:03:08.869Z,10480.00
2019-03-17T10:04:08.906Z,17344.00
2019-03-17T10:05:08.859Z,25408.00
2019-03-17T10:06:08.847Z,12140.00
2019-03-17T10:07:08.831Z,14124.00
2019-03-17T10:08:08.816Z,14960.00
2019-03-17T10:09:08.848Z,15204.00
2019-03-17T10:10:08.822Z,21088.00
2019-03-17T10:11:10.669Z,30560.00
2019-03-17T10:12:08.789Z,29184.00
2019-03-17T10:13:08.879Z,19744.00
2019-03-17T10:14:08.756Z,21856.00
2019-03-17T10:15:08.776Z,34912.00
2019-03-17T10:16:08.756Z,100928.00
2019-03-17T10:17:08.734Z,28064.00
2019-03-17T10:18:08.715Z,18656.00
2019-03-17T10:19:08.713Z,14912.00
2019-03-17T10:20:08.692Z,12908.00
2019-03-17T10:21:08.683Z,10900.00
2019-03-17T10:22:08.693Z,9892.00
2019-03-17T10:23:08.658Z,8944.00
2019-03-17T10:24:08.653Z,8544.00
2019-03-17T10:25:08.635Z,8156.00
2019-03-17T10:26:08.613Z,6520.00
2019-03-17T10:27:08.616Z,6368.00
2019-03-17T10:28:08.618Z,6412.00
2019-03-17T10:29:08.592Z,7164.00
2019-03-17T10:30:08.591Z,6992.00
2019-03-17T10:31:08.589Z,7476.00
2019-03-17T10:32:08.566Z,10060.00
2019-03-17T10:33:08.564Z,11520.00
2019-03-17T10:34:08.539Z,11444.00
2019-03-17T10:35:08.519Z,12860.00
2019-03-17T10:36:08.503Z,13272.00
2019-03-17T10:37:08.515Z,13188.00
2019-03-17T10:38:08.505Z,13972.00
2019-03-17T10:39:12.650Z,13968.00
2019-03-17T10:40:08.465Z,14332.00
2019-03-17T10:41:08.462Z,14908.00
2019-03-17T10:42:08.457Z,17472.00
2019-03-17T10:43:08.451Z,19840.00
2019-03-17T10:44:08.529Z,20416.00
2019-03-17T10:45:08.412Z,22240.00
2019-03-17T10:46:08.403Z,25664.00
2019-03-17T10:47:08.411Z,28960.00
2019-03-17T10:48:08.418Z,20640.00
2019-03-17T10:49:08.367Z,17120.00
2019-03-17T10:50:08.372Z,17824.00
2019-03-17T10:51:08.388Z,20704.00
2019-03-17T10:52:08.341Z,35680.00
2019-03-17T10:53:08.333Z,30912.00
2019-03-17T10:54:08.318Z,22848.00
2019-03-17T10:55:08.290Z,15928.00
2019-03-17T10:56:08.299Z,16928.00
2019-03-17T10:57:08.287Z,27744.00
2019-03-17T10:58:08.266Z,26784.00
2019-03-17T10:59:08.288Z,27680.00
2019-03-17T11:00:08.267Z,33888.00
2019-03-17T11:01:08.243Z,22816.00
2019-03-17T11:02:08.252Z,24128.00
2019-03-17T11:03:08.219Z,21888.00
2019-03-17T11:04:08.215Z,22688.00
2019-03-17T11:05:08.188Z,17248.00
2019-03-17T11:06:08.199Z,16764.00
2019-03-17T11:07:08.185Z,15968.00
2019-03-17T11:08:08.177Z,14104.00
2019-03-17T11:09:08.151Z,15448.00
2019-03-17T11:10:08.138Z,14968.00
2019-03-17T11:11:08.157Z,12892.00
2019-03-17T11:12:08.121Z,11148.00
2019-03-17T11:13:08.120Z,9456.00
2019-03-17T11:14:08.123Z,9056.00
2019-03-17T11:15:08.087Z,9044.00
2019-03-17T11:16:08.072Z,9388.00
2019-03-17T11:17:08.069Z,9024.00
2019-03-17T11:18:08.044Z,8132.00
2019-03-17T11:19:08.087Z,8684.00
2019-03-17T11:20:08.031Z,11164.00
2019-03-17T11:21:08.028Z,12008.00
2019-03-17T11:22:08.023Z,12976.00
2019-03-17T11:23:07.995Z,12600.00
2019-03-17T11:24:07.978Z,12268.00
2019-03-17T11:25:08.000Z,14360.00
2019-03-17T11:26:07.989Z,13244.00
2019-03-17T11:27:07.950Z,10844.00
2019-03-17T11:28:07.931Z,10528.00
2019-03-17T11:29:07.927Z,12764.00
2019-03-17T11:30:07.934Z,10768.00
2019-03-17T11:31:07.930Z,7792.00
2019-03-17T11:32:07.910Z,7112.00
2019-03-17T11:33:07.890Z,8828.00
2019-03-17T11:34:07.869Z,8616.00
2019-03-17T11:35:07.859Z,8472.00
2019-03-17T11:36:07.878Z,8812.00
2019-03-17T11:37:07.845Z,7080.00
2019-03-17T11:38:07.845Z,7504.00
2019-03-17T11:39:07.825Z,8008.00
2019-03-17T11:40:07.805Z,9072.00
2019-03-17T11:41:07.793Z,9968.00
2019-03-17T11:42:07.811Z,8636.00
2019-03-17T11:43:07.776Z,6180.00
2019-03-17T11:44:07.773Z,7428.00
2019-03-17T11:45:07.754Z,7044.00
2019-03-17T11:46:07.745Z,6184.00
2019-03-17T11:47:07.743Z,4344.00
2019-03-17T11:48:07.709Z,3340.00
2019-03-17T11:49:07.715Z,3636.00
2019-03-17T11:50:07.711Z,4192.00
2019-03-17T11:51:07.689Z,4400.00
2019-03-17T11:52:07.680Z,4684.00
2019-03-17T11:53:07.675Z,5924.00
2019-03-17T11:54:07.640Z,4904.00
2019-03-17T11:55:07.661Z,3980.00
2019-03-17T11:56:07.695Z,2968.00
2019-03-17T11:57:07.634Z,3452.00
2019-03-17T11:58:07.625Z,5096.00
2019-03-17T11:59:07.604Z,5660.00
2019-03-17T12:00:07.584Z,5416.00
2019-03-17T12:01:07.581Z,5264.00
2019-03-17T12:02:07.572Z,5256.00
2019-03-17T12:03:07.579Z,4904.00
2019-03-17T12:04:07.556Z,5708.00
2019-03-17T12:05:07.541Z,7232.00
2019-03-17T12:06:07.517Z,7524.00
2019-03-17T12:07:07.517Z,8260.00
2019-03-17T12:08:08.074Z,6792.00
2019-03-17T12:09:07.500Z,7192.00
2019-03-17T12:10:07.481Z,8060.00
2019-03-17T12:11:07.469Z,6572.00
2019-03-17T12:12:07.465Z,6084.00
2019-03-17T12:13:07.457Z,6488.00
2019-03-17T12:14:09.807Z,6168.00
2019-03-17T12:15:07.433Z,6240.00
2019-03-17T12:16:07.414Z,5260.00
2019-03-17T12:17:07.399Z,4392.00
2019-03-17T12:18:07.398Z,4632.00
2019-03-17T12:19:07.387Z,7324.00
2019-03-17T12:20:07.387Z,7204.00
2019-03-17T12:21:07.377Z,6900.00
2019-03-17T12:22:09.349Z,6076.00
2019-03-17T12:23:07.337Z,5784.00
2019-03-17T12:24:07.378Z,6252.00
2019-03-17T12:25:07.301Z,6960.00
2019-03-17T12:26:07.304Z,7648.00
2019-03-17T12:27:07.305Z,8752.00
2019-03-17T12:28:07.304Z,8708.00